createdAt,value
2023-02-28T00:01:40.854Z,100.00
2023-02-28T00:04:10.436Z,100.00
2023-02-28T00:06:38.814Z,100.00
2023-02-28T00:09:07.682Z,100.00
2023-02-28T00:11:35.804Z,100.00
2023-02-28T00:14:03.960Z,100.00
2023-02-28T00:16:32.002Z,100.00
2023-02-28T00:18:59.952Z,100.00
2023-02-28T00:21:28.153Z,100.00
2023-02-28T00:23:56.288Z,100.00
2023-02-28T00:26:24.264Z,100.00
2023-02-28T00:28:54.138Z,100.00
2023-02-28T00:31:22.187Z,100.00
2023-02-28T00:33:50.328Z,100.00
2023-02-28T00:36:18.595Z,100.00
2023-02-28T00:38:46.677Z,100.00
2023-02-28T00:41:14.810Z,100.00
2023-02-28T00:43:43.741Z,100.00
2023-02-28T00:46:12.874Z,100.00
2023-02-28T00:48:40.992Z,100.00
2023-02-28T00:51:08.960Z,100.00
2023-02-28T00:53:36.968Z,100.00
2023-02-28T00:56:05.347Z,100.00
2023-02-28T00:58:33.343Z,100.00
2023-02-28T01:01:01.524Z,100.00
2023-02-28T01:03:29.622Z,99.90
2023-02-28T01:05:57.749Z,100.00
2023-02-28T01:08:27.019Z,100.00
2023-02-28T01:10:54.994Z,100.00
2023-02-28T01:13:24.470Z,99.70
2023-02-28T01:15:53.838Z,98.14
2023-02-28T01:18:22.232Z,98.04
2023-02-28T01:20:50.253Z,99.70
2023-02-28T01:23:18.251Z,100.00
2023-02-28T01:25:46.178Z,99.54
2023-02-28T01:28:14.141Z,99.76
2023-02-28T01:30:42.150Z,100.00
2023-02-28T01:33:10.159Z,100.00
2023-02-28T01:35:38.296Z,100.00
2023-02-28T01:38:20.962Z,100.00
2023-02-28T01:40:49.797Z,100.00
2023-02-28T01:43:23.587Z,100.00
2023-02-28T01:45:53.063Z,100.00
2023-02-28T01:48:23.396Z,100.00
2023-02-28T01:50:51.506Z,100.00
2023-02-28T01:53:21.969Z,100.00
2023-02-28T01:55:50.900Z,100.00
2023-02-28T01:58:18.864Z,100.00
2023-02-28T02:00:49.017Z,100.00
2023-02-28T02:03:20.042Z,100.00
2023-02-28T02:05:48.907Z,100.00
2023-02-28T02:08:27.713Z,100.00
2023-02-28T02:10:57.323Z,100.00
2023-02-28T02:13:37.691Z,100.00
2023-02-28T02:16:40.817Z,100.00
2023-02-28T02:19:40.199Z,100.00
2023-02-28T02:22:26.599Z,100.00
2023-02-28T02:24:54.730Z,100.00
2023-02-28T02:27:41.235Z,100.00
2023-02-28T02:30:47.219Z,100.00
2023-02-28T02:33:49.395Z,100.00
2023-02-28T02:36:41.498Z,100.00
2023-02-28T02:39:17.453Z,100.00
2023-02-28T02:41:54.585Z,100.00
2023-02-28T02:44:27.392Z,100.00
2023-02-28T02:47:08.097Z,100.00
2023-02-28T02:49:37.139Z,100.00
2023-02-28T02:52:08.000Z,100.00
2023-02-28T02:54:37.543Z,100.00
2023-02-28T02:57:14.353Z,100.00
2023-02-28T02:59:42.482Z,100.00
2023-02-28T03:02:12.854Z,100.00
2023-02-28T03:04:47.041Z,100.00
2023-02-28T03:07:14.989Z,100.00
2023-02-28T03:09:52.132Z,100.00
2023-02-28T03:12:20.533Z,100.00
2023-02-28T03:15:17.849Z,100.00
2023-02-28T03:17:50.983Z,100.00
2023-02-28T03:20:18.921Z,100.00
2023-02-28T03:22:52.187Z,100.00
2023-02-28T03:25:23.928Z,100.00
2023-02-28T03:28:05.492Z,100.00
2023-02-28T03:30:38.095Z,100.00
2023-02-28T03:33:17.314Z,100.00
2023-02-28T03:35:57.410Z,100.00
2023-02-28T03:38:33.331Z,100.00
2023-02-28T03:41:15.056Z,100.00
2023-02-28T03:43:46.163Z,100.00
2023-02-28T03:46:15.247Z,100.00
2023-02-28T03:48:49.377Z,100.00
2023-02-28T03:51:19.091Z,100.00
2023-02-28T03:53:53.102Z,100.00
2023-02-28T03:56:28.364Z,100.00
2023-02-28T03:59:03.718Z,100.00
2023-02-28T04:01:37.200Z,100.00
2023-02-28T04:04:05.468Z,100.00
2023-02-28T04:06:33.839Z,100.00
2023-02-28T04:09:02.240Z,100.00
2023-02-28T04:11:38.244Z,100.00
2023-02-28T04:14:06.938Z,100.00
2023-02-28T04:16:39.183Z,100.00
2023-02-28T04:19:08.104Z,100.00
2023-02-28T04:21:38.607Z,100.00
2023-02-28T04:24:07.723Z,100.00
2023-02-28T04:26:37.257Z,100.00
2023-02-28T04:29:06.149Z,100.00
2023-02-28T04:31:34.937Z,100.00
2023-02-28T04:34:03.035Z,100.00
2023-02-28T04:36:31.145Z,100.00
2023-02-28T04:38:59.193Z,100.00
2023-02-28T04:41:28.934Z,100.00
2023-02-28T04:43:58.515Z,100.00
2023-02-28T04:46:26.539Z,100.00
2023-02-28T04:48:55.672Z,100.00
2023-02-28T04:51:23.976Z,100.00
2023-02-28T04:53:51.969Z,100.00
2023-02-28T04:56:19.987Z,100.00
2023-02-28T04:58:48.216Z,100.00
2023-02-28T05:01:17.824Z,100.00
2023-02-28T05:03:45.824Z,100.00
2023-02-28T05:06:13.963Z,100.00
2023-02-28T05:08:42.188Z,100.00
2023-02-28T05:11:15.770Z,100.00
2023-02-28T05:13:43.790Z,100.00
2023-02-28T05:16:11.820Z,100.00
2023-02-28T05:18:40.111Z,100.00
2023-02-28T05:21:34.276Z,100.00
2023-02-28T05:24:04.428Z,100.00
2023-02-28T05:26:34.952Z,100.00
2023-02-28T05:29:03.076Z,100.00
2023-02-28T05:31:31.536Z,100.00
2023-02-28T05:33:59.977Z,100.00
2023-02-28T05:36:27.945Z,100.00
2023-02-28T05:38:55.939Z,100.00
2023-02-28T05:41:23.946Z,100.00
2023-02-28T05:43:52.371Z,100.00
2023-02-28T05:46:20.276Z,100.00
2023-02-28T05:48:48.940Z,100.00
2023-02-28T05:51:17.142Z,100.00
2023-02-28T05:53:45.361Z,100.00
2023-02-28T05:56:13.445Z,100.00
2023-02-28T05:58:41.464Z,100.00
2023-02-28T06:01:39.923Z,100.00
2023-02-28T06:04:14.294Z,100.00
2023-02-28T06:06:50.751Z,100.00
2023-02-28T06:09:21.501Z,100.00
2023-02-28T06:11:49.650Z,100.00
2023-02-28T06:14:19.123Z,100.00
2023-02-28T06:16:47.358Z,100.00
2023-02-28T06:19:16.326Z,100.00
2023-02-28T06:21:44.589Z,100.00
2023-02-28T06:24:12.628Z,100.00
2023-02-28T06:26:40.838Z,100.00
2023-02-28T06:29:09.556Z,100.00
2023-02-28T06:31:37.567Z,100.00
2023-02-28T06:34:06.062Z,100.00
2023-02-28T06:36:35.250Z,100.00
2023-02-28T06:39:04.655Z,100.00
2023-02-28T06:41:41.472Z,100.00
2023-02-28T06:44:20.123Z,100.00
2023-02-28T06:46:49.489Z,100.00
2023-02-28T06:49:17.553Z,100.00
2023-02-28T06:51:48.671Z,100.00
2023-02-28T06:54:19.483Z,99.31
2023-02-28T06:56:48.258Z,98.78
2023-02-28T06:59:16.323Z,99.81
2023-02-28T07:01:44.430Z,100.00
2023-02-28T07:04:14.392Z,100.00
2023-02-28T07:06:42.565Z,99.86
2023-02-28T07:09:11.928Z,100.00
2023-02-28T07:11:39.942Z,99.82
2023-02-28T07:14:08.297Z,97.83
2023-02-28T07:16:36.527Z,96.89
2023-02-28T07:19:04.530Z,99.63
2023-02-28T07:21:32.617Z,98.56
2023-02-28T07:24:00.847Z,95.39
2023-02-28T07:26:28.944Z,98.46
2023-02-28T07:28:56.941Z,98.43
2023-02-28T07:31:24.928Z,98.74
2023-02-28T07:33:54.660Z,94.08
2023-02-28T07:36:22.590Z,96.62
2023-02-28T07:38:51.314Z,93.19
2023-02-28T07:41:21.114Z,83.55
2023-02-28T07:43:49.304Z,87.46
2023-02-28T07:46:17.566Z,92.76
2023-02-28T07:48:45.703Z,89.11
2023-02-28T07:51:13.742Z,89.53
2023-02-28T07:53:41.840Z,83.59
2023-02-28T07:56:11.321Z,81.37
2023-02-28T07:58:39.377Z,84.09
2023-02-28T08:01:11.151Z,81.70
2023-02-28T08:03:39.694Z,79.38
2023-02-28T08:06:09.132Z,80.55
2023-02-28T08:08:37.170Z,81.53
2023-02-28T08:11:07.957Z,76.62
2023-02-28T08:13:36.013Z,80.58
2023-02-28T08:16:04.116Z,77.79
2023-02-28T08:18:33.053Z,77.77
2023-02-28T08:21:01.208Z,76.35
2023-02-28T08:23:29.650Z,73.91
2023-02-28T08:25:57.881Z,74.12
2023-02-28T08:28:27.380Z,74.17
2023-02-28T08:30:56.421Z,71.23
2023-02-28T08:33:24.610Z,69.48
2023-02-28T08:35:56.549Z,72.54
2023-02-28T08:38:26.300Z,70.87
2023-02-28T08:41:01.732Z,70.88
2023-02-28T08:43:29.987Z,69.74
2023-02-28T08:45:58.645Z,67.29
2023-02-28T08:48:29.726Z,66.43
2023-02-28T08:51:07.233Z,64.62
2023-02-28T08:53:37.762Z,64.14
2023-02-28T08:56:13.796Z,66.26
2023-02-28T08:58:42.199Z,61.60
2023-02-28T09:01:11.854Z,62.72
2023-02-28T09:03:40.221Z,61.72
2023-02-28T09:06:08.414Z,59.37
2023-02-28T09:08:36.457Z,58.56
2023-02-28T09:11:04.593Z,58.31
2023-02-28T09:13:33.396Z,58.89
2023-02-28T09:16:05.562Z,59.39
2023-02-28T09:18:35.325Z,59.07
2023-02-28T09:21:15.842Z,57.15
2023-02-28T09:23:44.718Z,57.45
2023-02-28T09:26:20.867Z,56.81
2023-02-28T09:28:48.917Z,55.51
2023-02-28T09:31:22.097Z,55.91
2023-02-28T09:33:51.164Z,55.43
2023-02-28T09:36:19.349Z,53.29
2023-02-28T09:38:48.942Z,52.78
2023-02-28T09:41:26.472Z,52.60
2023-02-28T09:44:00.855Z,53.57
2023-02-28T09:46:44.169Z,49.79
2023-02-28T09:49:14.310Z,50.00
2023-02-28T09:52:13.303Z,49.93
2023-02-28T09:54:41.637Z,52.27
2023-02-28T09:57:16.923Z,51.53
2023-02-28T09:59:49.644Z,49.49
2023-02-28T10:02:20.609Z,47.61
2023-02-28T10:04:55.324Z,47.79
2023-02-28T10:07:23.352Z,46.86
2023-02-28T10:09:54.393Z,47.81
2023-02-28T10:12:22.861Z,47.52
2023-02-28T10:14:52.936Z,47.64
2023-02-28T10:17:23.569Z,47.94
2023-02-28T10:19:56.195Z,46.61
2023-02-28T10:22:37.517Z,46.49
2023-02-28T10:25:19.093Z,47.89
2023-02-28T10:27:47.138Z,48.53
2023-02-28T10:30:15.169Z,48.20
2023-02-28T10:32:49.027Z,47.05
2023-02-28T10:35:19.316Z,45.64
2023-02-28T10:37:52.482Z,43.82
2023-02-28T10:40:23.384Z,45.54
2023-02-28T10:43:17.881Z,44.61
2023-02-28T10:45:59.640Z,44.99
2023-02-28T10:48:33.798Z,45.46
2023-02-28T10:51:02.671Z,43.11
2023-02-28T10:53:44.680Z,44.66
2023-02-28T10:56:26.321Z,44.03
2023-02-28T10:58:55.870Z,42.81
2023-02-28T11:01:33.645Z,45.07
2023-02-28T11:04:02.202Z,43.36
2023-02-28T11:06:34.474Z,44.22
2023-02-28T11:09:15.278Z,44.56
2023-02-28T11:11:45.414Z,45.18
2023-02-28T11:14:35.378Z,45.33
2023-02-28T11:17:25.017Z,45.73
2023-02-28T11:19:56.361Z,44.11
2023-02-28T11:22:37.070Z,44.89
2023-02-28T11:25:11.278Z,45.15
2023-02-28T11:27:47.747Z,44.81
2023-02-28T11:30:39.856Z,44.52
2023-02-28T11:33:30.805Z,44.79
2023-02-28T11:36:05.089Z,42.62
2023-02-28T11:38:34.217Z,42.63
2023-02-28T11:41:24.701Z,44.18
2023-02-28T11:43:52.618Z,43.48
2023-02-28T11:46:58.885Z,43.57
2023-02-28T11:49:38.774Z,43.20
2023-02-28T11:52:30.514Z,42.66
2023-02-28T11:55:01.592Z,42.85
2023-02-28T11:57:34.237Z,42.47
2023-02-28T12:00:21.047Z,42.28
2023-02-28T12:02:57.613Z,42.27
2023-02-28T12:05:58.074Z,42.74
2023-02-28T12:08:38.874Z,42.90
2023-02-28T12:11:25.668Z,42.97
2023-02-28T12:14:39.076Z,43.12
2023-02-28T12:17:25.941Z,42.65
2023-02-28T12:20:22.556Z,42.27
2023-02-28T12:22:54.225Z,43.00
2023-02-28T12:25:49.377Z,43.01
2023-02-28T12:28:19.276Z,43.03
2023-02-28T12:31:12.307Z,43.22
2023-02-28T12:33:44.805Z,43.19
2023-02-28T12:36:20.143Z,43.40
2023-02-28T12:39:01.792Z,42.67
2023-02-28T12:42:13.097Z,43.45
2023-02-28T12:45:10.339Z,42.69
2023-02-28T12:47:39.858Z,43.39
2023-02-28T12:50:12.598Z,44.26
2023-02-28T12:52:50.159Z,45.19
2023-02-28T12:55:26.475Z,44.40
2023-02-28T12:58:09.804Z,43.15
2023-02-28T13:00:41.772Z,43.99
2023-02-28T13:03:32.723Z,44.64
2023-02-28T13:06:56.214Z,43.51
2023-02-28T13:09:24.473Z,43.83
2023-02-28T13:11:55.543Z,43.18
2023-02-28T13:14:23.480Z,43.05
2023-02-28T13:16:56.514Z,42.62
2023-02-28T13:19:26.848Z,42.43
2023-02-28T13:21:55.079Z,42.49
2023-02-28T13:24:35.441Z,42.74
2023-02-28T13:27:03.380Z,42.19
2023-02-28T13:29:39.342Z,41.82
2023-02-28T13:32:07.673Z,41.86
2023-02-28T13:34:37.150Z,40.51
2023-02-28T13:37:24.217Z,40.32
2023-02-28T13:39:55.930Z,40.93
2023-02-28T13:42:40.774Z,39.94
2023-02-28T13:45:08.921Z,39.35
2023-02-28T13:47:44.766Z,37.27
2023-02-28T13:50:39.109Z,37.64
2023-02-28T13:53:16.352Z,37.88
2023-02-28T13:55:54.200Z,38.39
2023-02-28T13:58:35.030Z,38.11
2023-02-28T14:01:34.258Z,38.49
2023-02-28T14:04:08.640Z,38.44
2023-02-28T14:06:39.799Z,39.06
2023-02-28T14:09:17.996Z,38.95
2023-02-28T14:11:47.119Z,39.08
2023-02-28T14:14:50.961Z,38.22
2023-02-28T14:17:19.120Z,37.94
2023-02-28T14:19:49.894Z,38.50
2023-02-28T14:22:55.740Z,38.24
2023-02-28T14:25:33.570Z,36.84
2023-02-28T14:28:28.575Z,37.25
2023-02-28T14:31:12.583Z,37.31
2023-02-28T14:33:56.311Z,37.02
2023-02-28T14:36:27.749Z,36.30
2023-02-28T14:39:01.792Z,36.14
2023-02-28T14:41:32.010Z,35.23
2023-02-28T14:44:01.361Z,35.73
2023-02-28T14:46:39.955Z,36.71
2023-02-28T14:49:12.683Z,36.34
2023-02-28T14:51:40.734Z,36.33
2023-02-28T14:54:14.155Z,36.63
2023-02-28T14:56:42.197Z,37.35
2023-02-28T14:59:30.616Z,38.61
2023-02-28T15:02:24.495Z,40.62
2023-02-28T15:04:57.305Z,41.28
2023-02-28T15:07:31.454Z,41.37
2023-02-28T15:10:18.856Z,41.47
2023-02-28T15:12:59.288Z,42.96
2023-02-28T15:16:01.178Z,43.96
2023-02-28T15:18:35.308Z,43.90
2023-02-28T15:21:05.786Z,44.01
2023-02-28T15:23:33.973Z,45.01
2023-02-28T15:26:02.183Z,44.38
2023-02-28T15:28:30.392Z,45.80
2023-02-28T15:31:00.796Z,45.51
2023-02-28T15:33:30.470Z,46.15
2023-02-28T15:36:14.809Z,46.47
2023-02-28T15:38:43.442Z,46.65
2023-02-28T15:41:24.661Z,47.10
2023-02-28T15:44:39.021Z,47.24
2023-02-28T15:47:13.371Z,48.53
2023-02-28T15:50:06.138Z,49.61
2023-02-28T15:52:42.353Z,52.12
2023-02-28T15:55:28.718Z,51.91
2023-02-28T15:58:01.695Z,49.04
2023-02-28T16:00:30.779Z,49.52
2023-02-28T16:02:59.211Z,49.28
2023-02-28T16:05:31.781Z,51.92
2023-02-28T16:08:12.868Z,51.27
2023-02-28T16:10:41.118Z,51.06
2023-02-28T16:13:13.063Z,50.65
2023-02-28T16:15:44.448Z,52.00
2023-02-28T16:18:13.231Z,51.79
2023-02-28T16:20:41.361Z,50.60
2023-02-28T16:23:09.468Z,54.11
2023-02-28T16:25:40.083Z,58.91
2023-02-28T16:28:14.217Z,62.68
2023-02-28T16:30:42.530Z,60.49
2023-02-28T16:33:10.790Z,56.21
2023-02-28T16:35:38.775Z,52.81
2023-02-28T16:38:06.711Z,61.70
2023-02-28T16:40:36.145Z,55.88
2023-02-28T16:43:23.551Z,54.79
2023-02-28T16:46:01.182Z,57.72
2023-02-28T16:48:31.887Z,55.65
2023-02-28T16:50:59.841Z,56.32
2023-02-28T16:53:27.885Z,66.18
2023-02-28T16:55:56.005Z,65.21
2023-02-28T16:58:26.652Z,67.91
2023-02-28T17:00:54.894Z,66.29
2023-02-28T17:03:33.051Z,62.52
2023-02-28T17:06:02.024Z,62.16
2023-02-28T17:08:30.962Z,62.72
2023-02-28T17:11:00.225Z,67.59
2023-02-28T17:13:28.337Z,70.17
2023-02-28T17:15:56.949Z,66.28
2023-02-28T17:18:25.235Z,64.44
2023-02-28T17:20:53.183Z,61.33
2023-02-28T17:23:21.158Z,62.17
2023-02-28T17:25:57.548Z,60.44
2023-02-28T17:28:28.679Z,65.69
2023-02-28T17:30:57.102Z,61.66
2023-02-28T17:33:25.396Z,60.61
2023-02-28T17:35:54.154Z,63.32
2023-02-28T17:38:24.169Z,62.69
2023-02-28T17:40:58.190Z,62.93
2023-02-28T17:43:27.288Z,67.44
2023-02-28T17:45:55.453Z,64.33
2023-02-28T17:48:23.467Z,62.94
2023-02-28T17:50:51.444Z,62.81
2023-02-28T17:53:19.536Z,65.37
2023-02-28T17:55:47.455Z,67.39
2023-02-28T17:58:15.491Z,65.34
2023-02-28T18:00:43.975Z,69.35
2023-02-28T18:03:13.876Z,64.38
2023-02-28T18:05:41.924Z,65.83
2023-02-28T18:08:11.726Z,68.16
2023-02-28T18:10:39.945Z,68.04
2023-02-28T18:13:08.832Z,65.91
2023-02-28T18:15:38.898Z,64.40
2023-02-28T18:18:08.545Z,64.79
2023-02-28T18:20:36.604Z,63.88
2023-02-28T18:23:04.597Z,63.44
2023-02-28T18:25:32.506Z,63.70
2023-02-28T18:28:00.848Z,64.30
2023-02-28T18:30:31.725Z,66.01
2023-02-28T18:33:00.282Z,65.57
2023-02-28T18:35:35.186Z,66.06
2023-02-28T18:38:09.048Z,65.22
2023-02-28T18:40:37.323Z,69.42
2023-02-28T18:43:05.391Z,66.73
2023-02-28T18:45:36.194Z,66.20
2023-02-28T18:48:04.357Z,65.05
2023-02-28T18:50:32.532Z,66.12
2023-02-28T18:53:01.779Z,68.04
2023-02-28T18:55:31.795Z,65.25
2023-02-28T18:58:00.154Z,65.78
2023-02-28T19:00:28.246Z,65.46
2023-02-28T19:02:56.321Z,67.17
2023-02-28T19:05:24.604Z,68.61
2023-02-28T19:07:52.720Z,66.32
2023-02-28T19:10:20.752Z,68.14
2023-02-28T19:12:48.861Z,69.11
2023-02-28T19:15:17.019Z,69.92
2023-02-28T19:17:46.739Z,67.38
2023-02-28T19:20:15.034Z,67.79
2023-02-28T19:22:43.042Z,66.56
2023-02-28T19:25:11.380Z,69.33
2023-02-28T19:27:39.452Z,68.36
2023-02-28T19:30:08.532Z,67.29
2023-02-28T19:32:37.153Z,68.09
2023-02-28T19:35:06.164Z,67.01
2023-02-28T19:37:39.490Z,70.33
2023-02-28T19:40:09.164Z,67.45
2023-02-28T19:42:37.233Z,66.51
2023-02-28T19:45:05.792Z,67.17
2023-02-28T19:47:34.129Z,67.72
2023-02-28T19:50:02.473Z,70.82
2023-02-28T19:52:30.536Z,68.13
2023-02-28T19:54:58.900Z,68.26
2023-02-28T19:57:26.985Z,68.35
2023-02-28T19:59:55.065Z,68.26
2023-02-28T20:02:23.230Z,68.81
2023-02-28T20:04:51.373Z,69.82
2023-02-28T20:07:22.653Z,72.73
2023-02-28T20:09:50.804Z,71.07
2023-02-28T20:12:24.044Z,68.69
2023-02-28T20:14:56.151Z,68.67
2023-02-28T20:17:24.339Z,68.64
2023-02-28T20:19:52.618Z,68.81
2023-02-28T20:22:20.639Z,71.23
2023-02-28T20:24:48.717Z,73.66
2023-02-28T20:27:17.635Z,70.14
2023-02-28T20:29:45.663Z,69.99
2023-02-28T20:32:13.972Z,77.11
2023-02-28T20:34:42.443Z,78.93
2023-02-28T20:37:10.504Z,75.56
2023-02-28T20:39:38.443Z,71.50
2023-02-28T20:42:07.366Z,71.40
2023-02-28T20:44:35.383Z,72.63
2023-02-28T20:47:04.018Z,72.24
2023-02-28T20:49:31.955Z,77.92
2023-02-28T20:51:59.989Z,74.39
2023-02-28T20:54:30.481Z,77.89
2023-02-28T20:56:58.529Z,73.35
2023-02-28T20:59:26.610Z,72.42
2023-02-28T21:01:56.444Z,72.55
2023-02-28T21:04:24.913Z,73.33
2023-02-28T21:06:53.612Z,72.13
2023-02-28T21:09:21.703Z,72.25
2023-02-28T21:11:49.797Z,72.50
2023-02-28T21:14:17.982Z,74.70
2023-02-28T21:16:47.019Z,72.21
2023-02-28T21:19:15.046Z,72.83
2023-02-28T21:21:44.217Z,73.20
2023-02-28T21:24:12.888Z,74.90
2023-02-28T21:26:41.206Z,73.45
2023-02-28T21:29:09.341Z,76.38
2023-02-28T21:31:37.770Z,73.04
2023-02-28T21:34:09.879Z,73.70
2023-02-28T21:36:40.406Z,73.42
2023-02-28T21:39:24.005Z,74.20
2023-02-28T21:41:52.444Z,74.96
2023-02-28T21:44:22.842Z,74.43
2023-02-28T21:46:52.572Z,77.41
2023-02-28T21:49:20.757Z,75.93
2023-02-28T21:51:48.666Z,74.25
2023-02-28T21:54:16.581Z,74.52
2023-02-28T21:56:44.658Z,74.40
2023-02-28T21:59:12.655Z,75.03
2023-02-28T22:01:41.504Z,73.35
2023-02-28T22:04:12.408Z,73.07
2023-02-28T22:06:41.323Z,74.10
2023-02-28T22:09:10.082Z,75.05
2023-02-28T22:11:38.529Z,74.82
2023-02-28T22:14:06.943Z,73.95
2023-02-28T22:16:49.617Z,74.44
2023-02-28T22:19:19.409Z,74.25
2023-02-28T22:21:47.759Z,76.11
2023-02-28T22:24:18.148Z,79.91
2023-02-28T22:26:46.318Z,77.42
2023-02-28T22:29:14.398Z,77.58
2023-02-28T22:31:42.725Z,76.71
2023-02-28T22:34:11.647Z,77.62
2023-02-28T22:36:42.809Z,76.90
2023-02-28T22:39:11.182Z,85.15
2023-02-28T22:41:39.306Z,80.23
2023-02-28T22:44:07.828Z,84.47
2023-02-28T22:46:36.375Z,85.96
2023-02-28T22:49:04.999Z,84.57
2023-02-28T22:51:33.149Z,81.74
2023-02-28T22:54:02.571Z,79.83
2023-02-28T22:56:30.981Z,79.19
2023-02-28T22:58:59.841Z,80.22
2023-02-28T23:01:29.977Z,81.63
2023-02-28T23:03:58.128Z,83.11
2023-02-28T23:06:29.885Z,82.72
2023-02-28T23:09:01.009Z,81.39
2023-02-28T23:11:34.333Z,83.28
2023-02-28T23:14:02.920Z,86.89
2023-02-28T23:16:40.898Z,84.11
2023-02-28T23:19:11.956Z,85.05
2023-02-28T23:21:40.515Z,83.38
2023-02-28T23:24:12.022Z,84.17
2023-02-28T23:26:42.030Z,84.45
2023-02-28T23:29:10.626Z,82.46
2023-02-28T23:31:38.695Z,81.84
2023-02-28T23:34:06.779Z,81.67
2023-02-28T23:36:34.817Z,83.16
2023-02-28T23:39:02.823Z,83.15
2023-02-28T23:41:30.860Z,82.53
2023-02-28T23:43:58.869Z,81.12
2023-02-28T23:46:27.249Z,81.20
2023-02-28T23:48:55.293Z,82.83
2023-02-28T23:51:23.292Z,83.81
2023-02-28T23:53:51.983Z,84.03
2023-02-28T23:56:21.690Z,81.62
2023-02-28T23:58:49.737Z,81.72
